sensor_id;sensor_type;location;lat;lon;timestamp;temperature;humidity
14798;DHT22;7490;63.708;20.368;2023-12-14T00:00:45;-8.70;99.90
14798;DHT22;7490;63.708;20.368;2023-12-14T00:03:11;-8.60;99.90
14798;DHT22;7490;63.708;20.368;2023-12-14T00:05:36;-8.60;99.90
14798;DHT22;7490;63.708;20.368;2023-12-14T00:08:02;-8.60;99.90
14798;DHT22;7490;63.708;20.368;2023-12-14T00:10:28;-8.60;99.90
14798;DHT22;7490;63.708;20.368;2023-12-14T00:12:53;-8.50;99.90
14798;DHT22;7490;63.708;20.368;2023-12-14T00:15:21;-8.50;99.90
14798;DHT22;7490;63.708;20.368;2023-12-14T00:17:46;-8.60;99.90
14798;DHT22;7490;63.708;20.368;2023-12-14T00:20:12;-8.60;99.90
14798;DHT22;7490;63.708;20.368;2023-12-14T00:22:38;-8.50;99.90
14798;DHT22;7490;63.708;20.368;2023-12-14T00:25:04;-8.60;99.90
14798;DHT22;7490;63.708;20.368;2023-12-14T00:27:30;-8.60;99.90
14798;DHT22;7490;63.708;20.368;2023-12-14T00:29:56;-8.60;99.90
14798;DHT22;7490;63.708;20.368;2023-12-14T00:32:21;-8.60;99.90
14798;DHT22;7490;63.708;20.368;2023-12-14T00:34:47;-8.60;99.90
14798;DHT22;7490;63.708;20.368;2023-12-14T00:37:13;-8.60;99.90
14798;DHT22;7490;63.708;20.368;2023-12-14T00:39:39;-8.50;99.90
14798;DHT22;7490;63.708;20.368;2023-12-14T00:42:04;-8.50;99.90
14798;DHT22;7490;63.708;20.368;2023-12-14T00:44:30;-8.50;99.90
14798;DHT22;7490;63.708;20.368;2023-12-14T00:46:56;-8.40;99.90
14798;DHT22;7490;63.708;20.368;2023-12-14T00:49:23;-8.40;99.90
14798;DHT22;7490;63.708;20.368;2023-12-14T00:51:49;-8.40;99.90
14798;DHT22;7490;63.708;20.368;2023-12-14T00:54:15;-8.40;99.90
14798;DHT22;7490;63.708;20.368;2023-12-14T00:56:40;-8.40;99.90
14798;DHT22;7490;63.708;20.368;2023-12-14T00:59:06;-8.40;99.90
14798;DHT22;7490;63.708;20.368;2023-12-14T01:01:32;-8.30;99.90
14798;DHT22;7490;63.708;20.368;2023-12-14T01:03:58;-8.30;99.90
14798;DHT22;7490;63.708;20.368;2023-12-14T01:06:24;-8.30;99.90
14798;DHT22;7490;63.708;20.368;2023-12-14T01:08:50;-8.20;99.90
14798;DHT22;7490;63.708;20.368;2023-12-14T01:11:16;-8.20;99.90
14798;DHT22;7490;63.708;20.368;2023-12-14T01:13:41;-8.20;99.90
14798;DHT22;7490;63.708;20.368;2023-12-14T01:16:08;-8.20;99.90
14798;DHT22;7490;63.708;20.368;2023-12-14T01:18:33;-8.10;99.90
14798;DHT22;7490;63.708;20.368;2023-12-14T01:20:59;-8.10;99.90
14798;DHT22;7490;63.708;20.368;2023-12-14T01:23:24;-8.10;99.90
14798;DHT22;7490;63.708;20.368;2023-12-14T01:25:50;-8.10;99.90
14798;DHT22;7490;63.708;20.368;2023-12-14T01:28:16;-8.10;99.90
14798;DHT22;7490;63.708;20.368;2023-12-14T01:30:41;-8.10;99.90
14798;DHT22;7490;63.708;20.368;2023-12-14T01:33:07;-8.20;99.90
14798;DHT22;7490;63.708;20.368;2023-12-14T01:35:33;-8.20;99.90
14798;DHT22;7490;63.708;20.368;2023-12-14T01:37:58;-8.20;99.90
14798;DHT22;7490;63.708;20.368;2023-12-14T01:40:24;-8.20;99.90
14798;DHT22;7490;63.708;20.368;2023-12-14T01:42:50;-8.20;99.90
14798;DHT22;7490;63.708;20.368;2023-12-14T01:45:15;-8.20;99.90
14798;DHT22;7490;63.708;20.368;2023-12-14T01:47:42;-8.20;99.90
14798;DHT22;7490;63.708;20.368;2023-12-14T01:50:08;-8.20;99.90
14798;DHT22;7490;63.708;20.368;2023-12-14T01:52:34;-8.20;99.90
14798;DHT22;7490;63.708;20.368;2023-12-14T01:55:00;-8.30;99.90
14798;DHT22;7490;63.708;20.368;2023-12-14T01:57:28;-8.30;99.90
14798;DHT22;7490;63.708;20.368;2023-12-14T01:59:53;-8.30;99.90
14798;DHT22;7490;63.708;20.368;2023-12-14T02:02:19;-8.30;99.90
14798;DHT22;7490;63.708;20.368;2023-12-14T02:04:45;-8.40;99.90
14798;DHT22;7490;63.708;20.368;2023-12-14T02:07:11;-8.40;99.90
14798;DHT22;7490;63.708;20.368;2023-12-14T02:09:36;-8.40;99.90
14798;DHT22;7490;63.708;20.368;2023-12-14T02:12:02;-8.40;99.90
14798;DHT22;7490;63.708;20.368;2023-12-14T02:14:28;-8.40;99.90
14798;DHT22;7490;63.708;20.368;2023-12-14T02:16:54;-8.40;99.90
14798;DHT22;7490;63.708;20.368;2023-12-14T02:19:19;-8.40;99.90
14798;DHT22;7490;63.708;20.368;2023-12-14T02:21:45;-8.50;99.90
14798;DHT22;7490;63.708;20.368;2023-12-14T02:24:11;-8.50;99.90
14798;DHT22;7490;63.708;20.368;2023-12-14T02:26:36;-8.50;99.90
14798;DHT22;7490;63.708;20.368;2023-12-14T02:29:02;-8.50;99.90
14798;DHT22;7490;63.708;20.368;2023-12-14T02:31:28;-8.40;99.90
14798;DHT22;7490;63.708;20.368;2023-12-14T02:33:53;-8.40;99.90
14798;DHT22;7490;63.708;20.368;2023-12-14T02:36:19;-8.40;99.90
14798;DHT22;7490;63.708;20.368;2023-12-14T02:38:44;-8.50;99.90
14798;DHT22;7490;63.708;20.368;2023-12-14T02:41:11;-8.50;99.90
14798;DHT22;7490;63.708;20.368;2023-12-14T02:43:36;-8.50;99.90
14798;DHT22;7490;63.708;20.368;2023-12-14T02:46:03;-8.50;99.90
14798;DHT22;7490;63.708;20.368;2023-12-14T02:48:29;-8.50;99.90
14798;DHT22;7490;63.708;20.368;2023-12-14T02:50:55;-8.60;99.90
14798;DHT22;7490;63.708;20.368;2023-12-14T02:53:21;-8.50;99.90
14798;DHT22;7490;63.708;20.368;2023-12-14T02:55:46;-8.60;99.90
14798;DHT22;7490;63.708;20.368;2023-12-14T02:58:12;-8.60;99.90
14798;DHT22;7490;63.708;20.368;2023-12-14T03:00:38;-8.60;99.90
14798;DHT22;7490;63.708;20.368;2023-12-14T03:03:03;-8.60;99.90
14798;DHT22;7490;63.708;20.368;2023-12-14T03:05:29;-8.70;99.90
14798;DHT22;7490;63.708;20.368;2023-12-14T03:07:55;-8.70;99.90
14798;DHT22;7490;63.708;20.368;2023-12-14T03:10:20;-8.70;99.90
14798;DHT22;7490;63.708;20.368;2023-12-14T03:12:46;-8.70;99.90
14798;DHT22;7490;63.708;20.368;2023-12-14T03:15:12;-8.70;99.90
14798;DHT22;7490;63.708;20.368;2023-12-14T03:17:37;-8.70;99.90
14798;DHT22;7490;63.708;20.368;2023-12-14T03:20:03;-8.80;99.90
14798;DHT22;7490;63.708;20.368;2023-12-14T03:22:30;-8.70;99.90
14798;DHT22;7490;63.708;20.368;2023-12-14T03:24:56;-8.70;99.90
14798;DHT22;7490;63.708;20.368;2023-12-14T03:27:22;-8.70;99.90
14798;DHT22;7490;63.708;20.368;2023-12-14T03:29:48;-8.70;99.90
14798;DHT22;7490;63.708;20.368;2023-12-14T03:32:14;-8.70;99.90
14798;DHT22;7490;63.708;20.368;2023-12-14T03:34:40;-8.70;99.90
14798;DHT22;7490;63.708;20.368;2023-12-14T03:37:06;-8.70;99.90
14798;DHT22;7490;63.708;20.368;2023-12-14T03:39:32;-8.70;99.90
14798;DHT22;7490;63.708;20.368;2023-12-14T03:41:57;-8.70;99.90
14798;DHT22;7490;63.708;20.368;2023-12-14T03:44:23;-8.70;99.90
14798;DHT22;7490;63.708;20.368;2023-12-14T03:46:49;-8.70;99.90
14798;DHT22;7490;63.708;20.368;2023-12-14T03:49:15;-8.70;99.90
14798;DHT22;7490;63.708;20.368;2023-12-14T03:51:41;-8.60;99.90
14798;DHT22;7490;63.708;20.368;2023-12-14T03:54:06;-8.60;99.90
14798;DHT22;7490;63.708;20.368;2023-12-14T03:56:32;-8.60;99.90
14798;DHT22;7490;63.708;20.368;2023-12-14T03:58:58;-8.60;99.90
14798;DHT22;7490;63.708;20.368;2023-12-14T04:01:24;-8.60;99.90
14798;DHT22;7490;63.708;20.368;2023-12-14T04:03:49;-8.60;99.90
14798;DHT22;7490;63.708;20.368;2023-12-14T04:06:15;-8.60;99.90
14798;DHT22;7490;63.708;20.368;2023-12-14T04:08:41;-8.50;99.90
14798;DHT22;7490;63.708;20.368;2023-12-14T04:11:08;-8.50;99.90
14798;DHT22;7490;63.708;20.368;2023-12-14T04:13:34;-8.50;99.90
14798;DHT22;7490;63.708;20.368;2023-12-14T04:16:00;-8.50;99.90
14798;DHT22;7490;63.708;20.368;2023-12-14T04:18:26;-8.40;99.90
14798;DHT22;7490;63.708;20.368;2023-12-14T04:20:51;-8.40;99.90
14798;DHT22;7490;63.708;20.368;2023-12-14T04:23:17;-8.40;99.90
14798;DHT22;7490;63.708;20.368;2023-12-14T04:25:43;-8.40;99.90
14798;DHT22;7490;63.708;20.368;2023-12-14T04:28:09;-8.40;99.90
14798;DHT22;7490;63.708;20.368;2023-12-14T04:30:34;-8.40;99.90
14798;DHT22;7490;63.708;20.368;2023-12-14T04:33:00;-8.40;99.90
14798;DHT22;7490;63.708;20.368;2023-12-14T04:35:26;-8.40;99.90
14798;DHT22;7490;63.708;20.368;2023-12-14T04:37:51;-8.40;99.90
14798;DHT22;7490;63.708;20.368;2023-12-14T04:40:17;-8.40;99.90
14798;DHT22;7490;63.708;20.368;2023-12-14T04:42:43;-8.40;99.90
14798;DHT22;7490;63.708;20.368;2023-12-14T04:45:09;-8.40;99.90
14798;DHT22;7490;63.708;20.368;2023-12-14T04:47:35;-8.40;99.90
14798;DHT22;7490;63.708;20.368;2023-12-14T04:50:02;-8.40;99.90
14798;DHT22;7490;63.708;20.368;2023-12-14T04:52:28;-8.30;99.90
14798;DHT22;7490;63.708;20.368;2023-12-14T04:54:53;-8.40;99.90
14798;DHT22;7490;63.708;20.368;2023-12-14T04:57:19;-8.40;99.90
14798;DHT22;7490;63.708;20.368;2023-12-14T04:59:45;-8.30;99.90
14798;DHT22;7490;63.708;20.368;2023-12-14T05:02:10;-8.30;99.90
14798;DHT22;7490;63.708;20.368;2023-12-14T05:04:36;-8.30;99.90
14798;DHT22;7490;63.708;20.368;2023-12-14T05:07:01;-8.30;99.90
14798;DHT22;7490;63.708;20.368;2023-12-14T05:09:27;-8.30;99.90
14798;DHT22;7490;63.708;20.368;2023-12-14T05:11:53;-8.30;99.90
14798;DHT22;7490;63.708;20.368;2023-12-14T05:14:19;-8.20;99.90
14798;DHT22;7490;63.708;20.368;2023-12-14T05:16:45;-8.20;99.90
14798;DHT22;7490;63.708;20.368;2023-12-14T05:19:10;-8.20;99.90
14798;DHT22;7490;63.708;20.368;2023-12-14T05:21:37;-8.20;99.90
14798;DHT22;7490;63.708;20.368;2023-12-14T05:24:03;-8.20;99.90
14798;DHT22;7490;63.708;20.368;2023-12-14T05:26:29;-8.20;99.90
14798;DHT22;7490;63.708;20.368;2023-12-14T05:28:55;-8.20;99.90
14798;DHT22;7490;63.708;20.368;2023-12-14T05:31:21;-8.20;99.90
14798;DHT22;7490;63.708;20.368;2023-12-14T05:33:46;-8.20;99.90
14798;DHT22;7490;63.708;20.368;2023-12-14T05:36:12;-8.30;99.90
14798;DHT22;7490;63.708;20.368;2023-12-14T05:38:41;-8.30;99.90
14798;DHT22;7490;63.708;20.368;2023-12-14T05:41:07;-8.30;99.90
14798;DHT22;7490;63.708;20.368;2023-12-14T05:43:33;-8.20;99.90
14798;DHT22;7490;63.708;20.368;2023-12-14T05:45:59;-8.30;99.90
14798;DHT22;7490;63.708;20.368;2023-12-14T05:48:25;-8.20;99.90
14798;DHT22;7490;63.708;20.368;2023-12-14T05:50:52;-8.20;99.90
14798;DHT22;7490;63.708;20.368;2023-12-14T05:53:18;-8.20;99.90
14798;DHT22;7490;63.708;20.368;2023-12-14T05:55:44;-8.20;99.90
14798;DHT22;7490;63.708;20.368;2023-12-14T05:58:10;-8.20;99.90
14798;DHT22;7490;63.708;20.368;2023-12-14T06:00:35;-8.20;99.90
14798;DHT22;7490;63.708;20.368;2023-12-14T06:03:02;-8.20;99.90
14798;DHT22;7490;63.708;20.368;2023-12-14T06:05:28;-8.20;99.90
14798;DHT22;7490;63.708;20.368;2023-12-14T06:07:53;-8.20;99.90
14798;DHT22;7490;63.708;20.368;2023-12-14T06:10:19;-8.20;99.90
14798;DHT22;7490;63.708;20.368;2023-12-14T06:12:45;-8.20;99.90
14798;DHT22;7490;63.708;20.368;2023-12-14T06:15:10;-8.10;99.90
14798;DHT22;7490;63.708;20.368;2023-12-14T06:17:37;-8.20;99.90
14798;DHT22;7490;63.708;20.368;2023-12-14T06:20:05;-8.20;99.90
14798;DHT22;7490;63.708;20.368;2023-12-14T06:22:35;-8.20;99.90
14798;DHT22;7490;63.708;20.368;2023-12-14T06:25:01;-8.20;99.90
14798;DHT22;7490;63.708;20.368;2023-12-14T06:27:26;-8.20;99.90
14798;DHT22;7490;63.708;20.368;2023-12-14T06:29:52;-8.20;99.90
14798;DHT22;7490;63.708;20.368;2023-12-14T06:32:18;-8.10;99.90
14798;DHT22;7490;63.708;20.368;2023-12-14T06:34:45;-8.10;99.90
14798;DHT22;7490;63.708;20.368;2023-12-14T06:37:10;-8.10;99.90
14798;DHT22;7490;63.708;20.368;2023-12-14T06:39:36;-8.10;99.90
14798;DHT22;7490;63.708;20.368;2023-12-14T06:42:02;-8.10;99.90
14798;DHT22;7490;63.708;20.368;2023-12-14T06:44:28;-8.10;99.90
14798;DHT22;7490;63.708;20.368;2023-12-14T06:46:55;-8.10;99.90
14798;DHT22;7490;63.708;20.368;2023-12-14T06:49:23;-8.10;99.90
14798;DHT22;7490;63.708;20.368;2023-12-14T06:51:49;-8.10;99.90
14798;DHT22;7490;63.708;20.368;2023-12-14T06:54:15;-8.00;99.90
14798;DHT22;7490;63.708;20.368;2023-12-14T06:56:41;-8.10;99.90
14798;DHT22;7490;63.708;20.368;2023-12-14T06:59:06;-8.10;99.90
14798;DHT22;7490;63.708;20.368;2023-12-14T07:01:32;-8.10;99.90
14798;DHT22;7490;63.708;20.368;2023-12-14T07:03:57;-8.10;99.90
14798;DHT22;7490;63.708;20.368;2023-12-14T07:06:23;-8.00;99.90
14798;DHT22;7490;63.708;20.368;2023-12-14T07:08:49;-8.00;99.90
14798;DHT22;7490;63.708;20.368;2023-12-14T07:11:15;-8.10;99.90
14798;DHT22;7490;63.708;20.368;2023-12-14T07:13:41;-8.00;99.90
14798;DHT22;7490;63.708;20.368;2023-12-14T07:16:08;-8.00;99.90
14798;DHT22;7490;63.708;20.368;2023-12-14T07:18:35;-8.00;99.90
14798;DHT22;7490;63.708;20.368;2023-12-14T07:21:02;-8.00;99.90
14798;DHT22;7490;63.708;20.368;2023-12-14T07:23:28;-8.00;99.90
14798;DHT22;7490;63.708;20.368;2023-12-14T07:25:53;-8.00;99.90
14798;DHT22;7490;63.708;20.368;2023-12-14T07:28:19;-7.90;99.90
14798;DHT22;7490;63.708;20.368;2023-12-14T07:30:48;-7.90;99.90
14798;DHT22;7490;63.708;20.368;2023-12-14T07:33:15;-7.90;99.90
14798;DHT22;7490;63.708;20.368;2023-12-14T07:35:40;-7.90;99.90
14798;DHT22;7490;63.708;20.368;2023-12-14T07:38:06;-7.90;99.90
14798;DHT22;7490;63.708;20.368;2023-12-14T07:40:32;-7.90;99.90
14798;DHT22;7490;63.708;20.368;2023-12-14T07:42:57;-7.90;99.90
14798;DHT22;7490;63.708;20.368;2023-12-14T07:45:23;-7.90;99.90
14798;DHT22;7490;63.708;20.368;2023-12-14T07:47:49;-7.90;99.90
14798;DHT22;7490;63.708;20.368;2023-12-14T07:50:14;-7.90;99.90
14798;DHT22;7490;63.708;20.368;2023-12-14T07:52:40;-7.90;99.90
14798;DHT22;7490;63.708;20.368;2023-12-14T07:55:06;-7.90;99.90
14798;DHT22;7490;63.708;20.368;2023-12-14T07:57:32;-7.80;99.90
14798;DHT22;7490;63.708;20.368;2023-12-14T07:59:58;-7.80;99.90
14798;DHT22;7490;63.708;20.368;2023-12-14T08:02:23;-7.80;99.90
14798;DHT22;7490;63.708;20.368;2023-12-14T08:04:49;-7.70;99.90
14798;DHT22;7490;63.708;20.368;2023-12-14T08:07:15;-7.80;99.90
14798;DHT22;7490;63.708;20.368;2023-12-14T08:09:40;-7.70;99.90
14798;DHT22;7490;63.708;20.368;2023-12-14T08:12:06;-7.70;99.90
14798;DHT22;7490;63.708;20.368;2023-12-14T08:14:35;-7.70;99.90
14798;DHT22;7490;63.708;20.368;2023-12-14T08:17:03;-7.70;99.90
14798;DHT22;7490;63.708;20.368;2023-12-14T08:19:28;-7.80;99.90
14798;DHT22;7490;63.708;20.368;2023-12-14T08:21:54;-7.70;99.90
14798;DHT22;7490;63.708;20.368;2023-12-14T08:24:20;-7.80;99.90
14798;DHT22;7490;63.708;20.368;2023-12-14T08:26:46;-7.80;99.90
14798;DHT22;7490;63.708;20.368;2023-12-14T08:29:11;-7.80;99.90
14798;DHT22;7490;63.708;20.368;2023-12-14T08:31:37;-7.80;99.90
14798;DHT22;7490;63.708;20.368;2023-12-14T08:34:02;-7.80;99.90
14798;DHT22;7490;63.708;20.368;2023-12-14T08:36:29;-7.80;99.90
14798;DHT22;7490;63.708;20.368;2023-12-14T08:38:57;-7.80;99.90
14798;DHT22;7490;63.708;20.368;2023-12-14T08:41:22;-7.80;99.90
14798;DHT22;7490;63.708;20.368;2023-12-14T08:43:48;-7.80;99.90
14798;DHT22;7490;63.708;20.368;2023-12-14T08:46:13;-7.80;99.90
14798;DHT22;7490;63.708;20.368;2023-12-14T08:48:39;-7.80;99.90
14798;DHT22;7490;63.708;20.368;2023-12-14T08:51:05;-7.80;99.90
14798;DHT22;7490;63.708;20.368;2023-12-14T08:53:31;-7.70;99.90
14798;DHT22;7490;63.708;20.368;2023-12-14T08:55:57;-7.70;99.90
14798;DHT22;7490;63.708;20.368;2023-12-14T08:58:22;-7.70;99.90
14798;DHT22;7490;63.708;20.368;2023-12-14T09:00:48;-7.70;99.90
14798;DHT22;7490;63.708;20.368;2023-12-14T09:03:18;-7.70;99.90
14798;DHT22;7490;63.708;20.368;2023-12-14T09:05:44;-7.70;99.90
14798;DHT22;7490;63.708;20.368;2023-12-14T09:08:11;-7.70;99.90
14798;DHT22;7490;63.708;20.368;2023-12-14T09:10:40;-7.70;99.90
14798;DHT22;7490;63.708;20.368;2023-12-14T09:13:05;-7.70;99.90
14798;DHT22;7490;63.708;20.368;2023-12-14T09:15:32;-7.70;99.90
14798;DHT22;7490;63.708;20.368;2023-12-14T09:17:57;-7.70;99.90
14798;DHT22;7490;63.708;20.368;2023-12-14T09:20:23;-7.70;99.90
14798;DHT22;7490;63.708;20.368;2023-12-14T09:22:49;-7.70;99.90
14798;DHT22;7490;63.708;20.368;2023-12-14T09:25:14;-7.70;99.90
14798;DHT22;7490;63.708;20.368;2023-12-14T09:27:41;-7.60;99.90
14798;DHT22;7490;63.708;20.368;2023-12-14T09:30:07;-7.60;99.90
14798;DHT22;7490;63.708;20.368;2023-12-14T09:32:33;-7.60;99.90
14798;DHT22;7490;63.708;20.368;2023-12-14T09:34:59;-7.60;99.90
14798;DHT22;7490;63.708;20.368;2023-12-14T09:37:25;-7.60;99.90
14798;DHT22;7490;63.708;20.368;2023-12-14T09:39:50;-7.60;99.90
14798;DHT22;7490;63.708;20.368;2023-12-14T09:42:19;-7.50;99.90
14798;DHT22;7490;63.708;20.368;2023-12-14T09:44:47;-7.60;99.90
14798;DHT22;7490;63.708;20.368;2023-12-14T09:47:13;-7.60;99.90
14798;DHT22;7490;63.708;20.368;2023-12-14T09:49:41;-7.50;99.90
14798;DHT22;7490;63.708;20.368;2023-12-14T09:52:08;-7.50;99.90
14798;DHT22;7490;63.708;20.368;2023-12-14T09:54:34;-7.60;99.90
14798;DHT22;7490;63.708;20.368;2023-12-14T09:57:00;-7.60;99.90
14798;DHT22;7490;63.708;20.368;2023-12-14T09:59:26;-7.50;99.90
14798;DHT22;7490;63.708;20.368;2023-12-14T10:01:52;-7.60;99.90
14798;DHT22;7490;63.708;20.368;2023-12-14T10:04:19;-7.60;99.90
14798;DHT22;7490;63.708;20.368;2023-12-14T10:06:46;-7.50;99.90
14798;DHT22;7490;63.708;20.368;2023-12-14T10:09:13;-7.50;99.90
14798;DHT22;7490;63.708;20.368;2023-12-14T10:11:41;-7.50;99.90
14798;DHT22;7490;63.708;20.368;2023-12-14T10:14:28;-7.50;99.90
14798;DHT22;7490;63.708;20.368;2023-12-14T10:16:55;-7.50;99.90
14798;DHT22;7490;63.708;20.368;2023-12-14T10:19:21;-7.50;99.90
14798;DHT22;7490;63.708;20.368;2023-12-14T10:21:47;-7.50;99.90
14798;DHT22;7490;63.708;20.368;2023-12-14T10:24:14;-7.40;99.90
14798;DHT22;7490;63.708;20.368;2023-12-14T10:26:40;-7.50;99.90
14798;DHT22;7490;63.708;20.368;2023-12-14T10:29:06;-7.50;99.90
14798;DHT22;7490;63.708;20.368;2023-12-14T10:31:33;-7.40;99.90
14798;DHT22;7490;63.708;20.368;2023-12-14T10:34:03;-7.40;99.90
14798;DHT22;7490;63.708;20.368;2023-12-14T10:36:30;-7.40;99.90
14798;DHT22;7490;63.708;20.368;2023-12-14T10:39:00;-7.30;99.90
14798;DHT22;7490;63.708;20.368;2023-12-14T10:41:27;-7.30;99.90
14798;DHT22;7490;63.708;20.368;2023-12-14T10:43:56;-7.30;99.90
14798;DHT22;7490;63.708;20.368;2023-12-14T10:46:23;-7.40;99.90
14798;DHT22;7490;63.708;20.368;2023-12-14T10:48:52;-7.40;99.90
14798;DHT22;7490;63.708;20.368;2023-12-14T10:51:19;-7.30;99.90
14798;DHT22;7490;63.708;20.368;2023-12-14T10:53:46;-7.30;99.90
14798;DHT22;7490;63.708;20.368;2023-12-14T10:56:14;-7.30;99.90
14798;DHT22;7490;63.708;20.368;2023-12-14T10:58:54;-7.30;99.90
14798;DHT22;7490;63.708;20.368;2023-12-14T11:01:22;-7.20;99.90
14798;DHT22;7490;63.708;20.368;2023-12-14T11:03:50;-7.30;99.90
14798;DHT22;7490;63.708;20.368;2023-12-14T11:08:53;-7.20;99.90
14798;DHT22;7490;63.708;20.368;2023-12-14T11:11:20;-7.20;99.90
14798;DHT22;7490;63.708;20.368;2023-12-14T11:13:52;-7.30;99.90
14798;DHT22;7490;63.708;20.368;2023-12-14T11:16:21;-7.20;99.90
14798;DHT22;7490;63.708;20.368;2023-12-14T11:18:47;-7.20;99.90
14798;DHT22;7490;63.708;20.368;2023-12-14T11:21:19;-7.20;99.90
14798;DHT22;7490;63.708;20.368;2023-12-14T11:23:50;-7.20;99.90
14798;DHT22;7490;63.708;20.368;2023-12-14T11:26:21;-7.30;99.90
14798;DHT22;7490;63.708;20.368;2023-12-14T11:28:50;-7.30;99.90
14798;DHT22;7490;63.708;20.368;2023-12-14T11:31:16;-7.30;99.90
14798;DHT22;7490;63.708;20.368;2023-12-14T11:33:42;-7.30;99.90
14798;DHT22;7490;63.708;20.368;2023-12-14T11:36:11;-7.30;99.90
14798;DHT22;7490;63.708;20.368;2023-12-14T11:38:37;-7.30;99.90
14798;DHT22;7490;63.708;20.368;2023-12-14T11:41:03;-7.30;99.90
14798;DHT22;7490;63.708;20.368;2023-12-14T11:43:29;-7.20;99.90
14798;DHT22;7490;63.708;20.368;2023-12-14T11:45:55;-7.20;99.90
14798;DHT22;7490;63.708;20.368;2023-12-14T11:48:24;-7.20;99.90
14798;DHT22;7490;63.708;20.368;2023-12-14T11:50:49;-7.20;99.90
14798;DHT22;7490;63.708;20.368;2023-12-14T11:53:15;-7.20;99.90
14798;DHT22;7490;63.708;20.368;2023-12-14T11:55:42;-7.20;99.90
14798;DHT22;7490;63.708;20.368;2023-12-14T11:58:08;-7.20;99.90
14798;DHT22;7490;63.708;20.368;2023-12-14T12:00:36;-7.20;99.90
14798;DHT22;7490;63.708;20.368;2023-12-14T12:03:11;-7.20;99.90
14798;DHT22;7490;63.708;20.368;2023-12-14T12:05:45;-7.10;99.90
14798;DHT22;7490;63.708;20.368;2023-12-14T12:08:12;-7.20;99.90
14798;DHT22;7490;63.708;20.368;2023-12-14T12:10:39;-7.20;99.90
14798;DHT22;7490;63.708;20.368;2023-12-14T12:13:07;-7.20;99.90
14798;DHT22;7490;63.708;20.368;2023-12-14T12:15:34;-7.20;99.90
14798;DHT22;7490;63.708;20.368;2023-12-14T12:18:10;-7.30;99.90
14798;DHT22;7490;63.708;20.368;2023-12-14T12:20:36;-7.30;99.90
14798;DHT22;7490;63.708;20.368;2023-12-14T12:23:02;-7.30;99.90
14798;DHT22;7490;63.708;20.368;2023-12-14T12:25:29;-7.30;99.90
14798;DHT22;7490;63.708;20.368;2023-12-14T12:27:58;-7.30;99.90
14798;DHT22;7490;63.708;20.368;2023-12-14T12:30:24;-7.30;99.90
14798;DHT22;7490;63.708;20.368;2023-12-14T12:32:50;-7.30;99.90
14798;DHT22;7490;63.708;20.368;2023-12-14T12:35:19;-7.30;99.90
14798;DHT22;7490;63.708;20.368;2023-12-14T12:37:45;-7.30;99.90
14798;DHT22;7490;63.708;20.368;2023-12-14T12:40:11;-7.30;99.90
14798;DHT22;7490;63.708;20.368;2023-12-14T12:42:37;-7.30;99.90
14798;DHT22;7490;63.708;20.368;2023-12-14T12:45:03;-7.30;99.90
14798;DHT22;7490;63.708;20.368;2023-12-14T12:47:30;-7.30;99.90
14798;DHT22;7490;63.708;20.368;2023-12-14T12:49:56;-7.40;99.90
14798;DHT22;7490;63.708;20.368;2023-12-14T12:52:21;-7.40;99.90
14798;DHT22;7490;63.708;20.368;2023-12-14T12:54:47;-7.40;99.90
14798;DHT22;7490;63.708;20.368;2023-12-14T12:57:13;-7.40;99.90
14798;DHT22;7490;63.708;20.368;2023-12-14T12:59:38;-7.40;99.90
14798;DHT22;7490;63.708;20.368;2023-12-14T13:02:04;-7.40;99.90
14798;DHT22;7490;63.708;20.368;2023-12-14T13:04:30;-7.40;99.90
14798;DHT22;7490;63.708;20.368;2023-12-14T13:06:56;-7.40;99.90
14798;DHT22;7490;63.708;20.368;2023-12-14T13:09:22;-7.30;99.90
14798;DHT22;7490;63.708;20.368;2023-12-14T13:11:48;-7.30;99.90
14798;DHT22;7490;63.708;20.368;2023-12-14T13:14:14;-7.30;99.90
14798;DHT22;7490;63.708;20.368;2023-12-14T13:16:40;-7.30;99.90
14798;DHT22;7490;63.708;20.368;2023-12-14T13:19:06;-7.30;99.90
14798;DHT22;7490;63.708;20.368;2023-12-14T13:21:33;-7.30;99.90
14798;DHT22;7490;63.708;20.368;2023-12-14T13:24:02;-7.30;99.90
14798;DHT22;7490;63.708;20.368;2023-12-14T13:26:28;-7.40;99.90
14798;DHT22;7490;63.708;20.368;2023-12-14T13:28:54;-7.40;99.90
14798;DHT22;7490;63.708;20.368;2023-12-14T13:31:20;-7.40;99.90
14798;DHT22;7490;63.708;20.368;2023-12-14T13:33:47;-7.40;99.90
14798;DHT22;7490;63.708;20.368;2023-12-14T13:36:13;-7.40;99.90
14798;DHT22;7490;63.708;20.368;2023-12-14T13:38:40;-7.30;99.90
14798;DHT22;7490;63.708;20.368;2023-12-14T13:41:07;-7.30;99.90
14798;DHT22;7490;63.708;20.368;2023-12-14T13:43:32;-7.30;99.90
14798;DHT22;7490;63.708;20.368;2023-12-14T13:45:58;-7.30;99.90
14798;DHT22;7490;63.708;20.368;2023-12-14T13:48:27;-7.40;99.90
14798;DHT22;7490;63.708;20.368;2023-12-14T13:50:54;-7.40;99.90
14798;DHT22;7490;63.708;20.368;2023-12-14T13:53:21;-7.40;99.90
14798;DHT22;7490;63.708;20.368;2023-12-14T13:55:46;-7.40;99.90
14798;DHT22;7490;63.708;20.368;2023-12-14T13:58:12;-7.30;99.90
14798;DHT22;7490;63.708;20.368;2023-12-14T14:00:38;-7.40;99.90
14798;DHT22;7490;63.708;20.368;2023-12-14T14:03:04;-7.40;99.90
14798;DHT22;7490;63.708;20.368;2023-12-14T14:05:33;-7.40;99.90
14798;DHT22;7490;63.708;20.368;2023-12-14T14:07:59;-7.40;99.90
14798;DHT22;7490;63.708;20.368;2023-12-14T14:10:25;-7.40;99.90
14798;DHT22;7490;63.708;20.368;2023-12-14T14:12:51;-7.30;99.90
14798;DHT22;7490;63.708;20.368;2023-12-14T14:15:17;-7.30;99.90
14798;DHT22;7490;63.708;20.368;2023-12-14T14:17:43;-7.30;99.90
14798;DHT22;7490;63.708;20.368;2023-12-14T14:20:09;-7.30;99.90
14798;DHT22;7490;63.708;20.368;2023-12-14T14:22:38;-7.30;99.90
14798;DHT22;7490;63.708;20.368;2023-12-14T14:25:05;-7.20;99.90
14798;DHT22;7490;63.708;20.368;2023-12-14T14:27:34;-7.20;99.90
14798;DHT22;7490;63.708;20.368;2023-12-14T14:30:00;-7.20;99.90
14798;DHT22;7490;63.708;20.368;2023-12-14T14:32:26;-7.20;99.90
14798;DHT22;7490;63.708;20.368;2023-12-14T14:34:52;-7.20;99.90
14798;DHT22;7490;63.708;20.368;2023-12-14T14:37:20;-7.20;99.90
14798;DHT22;7490;63.708;20.368;2023-12-14T14:39:46;-7.20;99.90
14798;DHT22;7490;63.708;20.368;2023-12-14T14:42:13;-7.20;99.90
14798;DHT22;7490;63.708;20.368;2023-12-14T14:44:39;-7.20;99.90
14798;DHT22;7490;63.708;20.368;2023-12-14T14:47:06;-7.20;99.90
14798;DHT22;7490;63.708;20.368;2023-12-14T14:49:31;-7.20;99.90
14798;DHT22;7490;63.708;20.368;2023-12-14T14:51:57;-7.20;99.90
14798;DHT22;7490;63.708;20.368;2023-12-14T14:54:23;-7.20;99.90
14798;DHT22;7490;63.708;20.368;2023-12-14T14:56:48;-7.20;99.90
14798;DHT22;7490;63.708;20.368;2023-12-14T14:59:14;-7.20;99.90
14798;DHT22;7490;63.708;20.368;2023-12-14T15:01:41;-7.20;99.90
14798;DHT22;7490;63.708;20.368;2023-12-14T15:04:07;-7.20;99.90
14798;DHT22;7490;63.708;20.368;2023-12-14T15:06:33;-7.20;99.90
14798;DHT22;7490;63.708;20.368;2023-12-14T15:08:59;-7.20;99.90
14798;DHT22;7490;63.708;20.368;2023-12-14T15:11:25;-7.20;99.90
14798;DHT22;7490;63.708;20.368;2023-12-14T15:13:51;-7.20;99.90
14798;DHT22;7490;63.708;20.368;2023-12-14T15:16:17;-7.20;99.90
14798;DHT22;7490;63.708;20.368;2023-12-14T15:18:44;-7.20;99.90
14798;DHT22;7490;63.708;20.368;2023-12-14T15:21:10;-7.20;99.90
14798;DHT22;7490;63.708;20.368;2023-12-14T15:23:37;-7.20;99.90
14798;DHT22;7490;63.708;20.368;2023-12-14T15:26:03;-7.20;99.90